עמוד ראשי
METAR-TAF:

METAR-TAF

שדות תעופה :

Sligo, אירלנד

קו רוחב: 54-16-49N, קו אורך: 8-35-57W, גובה: 3מטר

תצפית מזג אוויר נוכחית

הדו"ח נערך לפני 47דקות, בשעה 12:00 UTC
רוח 10קשר מכיוון צפון-מערב
טמפרטורת 15 צלסיוס
לחץ 1020 hPa
ראות 10 קילומטר או יותר
עננים בינוניים בגובה 2300רגל

METAR: EISG 251200Z 31010KT 9999 BKN023 15/// Q1020

זמן: 13:47 (12:47 UTC)

תחזית

הדו"ח נערך לפני 1 שעות ו 47דקות, בשעה 11:00 UTC
תחזית בתוקף מ 25 ב 12 UTC עד 25 ב 21 UTC
רוח 7קשר מכיוון צפון
ראות 10 קילומטר או יותר
עננים בינוניים בגובה 2500רגל
יעשה מ
25 ב 14 UTC עד 25 ב 16 UTC
רוח 10קשר מכיוון צפון/צפון-מערב

TAF: EISG 251100Z 2512/2521 01007KT 9999 BKN025 BECMG 2514/2516 33010KT

תצפיות ותחזיות מזג אוויר לגבי יותר מ- 4,000 שדות תעופה ברחבי העולם. דוחות METAR ו- TAF.

התחנות הזמינות מסומנות בנקודות צהובות ואדומות על גבי המפה.

העבר את העכבר לנקודה הצבעונית על מנת לראות את שם התחנה.

לאחר מכן, לחץ כדי לראות את תוכן ואת תחזיות מזג האוויר.

כדי לשנות את המפה: לחץ על הכפתורים הירוקים עם הפלוס השחור כדי להתקרב; על הכפתור הירוק עם המקף כדי להתרחק; או בחיצים הירוקים למפות סמוכות.


METAR-TAF: